Vista Star — WDG3609 — position and weather

sailwx.info

Track history (hours):
 
Tides and Currents Weather Stations Pressure Air Temp Water Temp Dewpoint Dewpoint Depression Visibility Wind Speed Wind Dir Waves Ship Positions

Vista Star

Owner: Vista Cruises Inc., Duluth, MN. More information available from US FCC via Universal Licensing System and Coast Guard Vessel Documentation Center.

Last reported at 2018-May-22 19:04 UTC. Time now 2018-May-22 19:33 UTC.
Position N 46°47' W 092°06'.

Type: Ship. MMSI: 367527820.

Date/timePositionNaut miles runAvg speedWind from/ knotsBaromVisibWave heightAir tempDewpointWater temp
2018-May-22 19:04N 46°47' W 092°06'0 0.0
2018-May-22 19:00N 46°47' W 092°06'1 2.4
2018-May-22 18:30N 46°46' W 092°06'1 2.4
2018-May-22 18:00N 46°47' W 092°05'0 0.5
2018-May-22 17:29N 46°47' W 092°06'0 0.1
2018-May-22 17:00N 46°47' W 092°06'1 2.3
2018-May-22 16:30N 46°46' W 092°06'1 2.1
2018-May-22 16:00N 46°47' W 092°06'0 0.3
2018-May-22 15:30N 46°47' W 092°06'0 0.1
2018-May-22 15:00N 46°47' W 092°06'0 0.0
2018-May-22 14:30N 46°47' W 092°06'0 0.0
2018-May-21 18:59N 46°47' W 092°06'1 1.6
2018-May-21 18:30N 46°46' W 092°06'1 1.4
2018-May-21 18:01N 46°47' W 092°06'0 0.4
2018-May-21 17:30N 46°47' W 092°06'0 0.1
2018-May-21 17:00N 46°47' W 092°06'1 1.8
2018-May-21 16:30N 46°46' W 092°06'1 1.9
2018-May-21 16:01N 46°47' W 092°05'0 0.6
2018-May-21 15:30N 46°47' W 092°06'0 0.1
2018-May-21 15:00N 46°47' W 092°06'0 0.0
2018-May-20 22:17N 46°47' W 092°06'1 2.6
2018-May-20 22:01N 46°46' W 092°06'2 3.7
2018-May-20 21:30N 46°45' W 092°08'2 5.0
2018-May-20 21:01N 46°47' W 092°05'0 0.5
2018-May-20 20:31N 46°47' W 092°06'0 0.1
2018-May-20 20:01N 46°47' W 092°06'0 0.0
2018-May-20 19:31N 46°47' W 092°06'0 0.0
2018-May-20 19:00N 46°47' W 092°06'1 1.1
2018-May-20 18:30N 46°46' W 092°06'0 0.9
2018-May-20 18:01N 46°47' W 092°06'0 0.4
2018-May-20 17:30N 46°47' W 092°06'0 0.3
2018-May-20 17:00N 46°47' W 092°06'1 1.3
2018-May-20 16:31N 46°46' W 092°06'2 3.8
2018-May-20 16:00N 46°45' W 092°07'3 5.5
2018-May-20 15:30N 46°47' W 092°05'1 1.3
2018-May-20 15:00N 46°47' W 092°06'0 0.2
2018-May-20 14:30N 46°47' W 092°06'0 0.0
2018-May-20 03:32N 46°47' W 092°06'0 0.2
2018-May-20 03:30N 46°47' W 092°06'0 0.0
2018-May-20 03:00N 46°47' W 092°06'3 5.2
2018-May-20 02:30N 46°45' W 092°03'3 5.9
2018-May-20 02:00N 46°42' W 092°01'3 6.6
2018-May-20 01:30N 46°44' W 092°05'3 5.3
2018-May-20 01:00N 46°47' W 092°06'0 0.0
2018-May-20 00:30N 46°47' W 092°06'0 0.0
2018-May-19 20:47N 46°47' W 092°06'1 3.3
2018-May-19 20:30N 46°46' W 092°06'1 1.7
2018-May-19 20:00N 46°47' W 092°06'0 0.2
2018-May-19 19:30N 46°47' W 092°06'0 0.3
2018-May-19 19:00N 46°47' W 092°06'0 0.6
2018-May-19 18:30N 46°47' W 092°06'0 0.5
2018-May-19 18:00N 46°46' W 092°06'1 1.1
2018-May-19 17:30N 46°47' W 092°05'0 0.6
2018-May-19 17:00N 46°47' W 092°06'1 1.5
2018-May-19 16:30N 46°46' W 092°06'2 3.9
2018-May-19 16:00N 46°45' W 092°08'3 5.3
2018-May-19 15:30N 46°47' W 092°05'0 0.8
2018-May-19 15:00N 46°47' W 092°06'0 0.0
2018-May-18 23:12N 46°47' W 092°06'0 0.0
2018-May-18 19:07N 46°47' W 092°06'0 0.0
2018-May-18 19:00N 46°47' W 092°06'0 0.2
2018-May-18 18:29N 46°47' W 092°06'2 4.9
2018-May-18 18:00N 46°45' W 092°07'2 4.3
2018-May-18 17:30N 46°47' W 092°06'0 0.5
2018-May-18 17:00N 46°47' W 092°06'1 2.2
2018-May-18 16:30N 46°46' W 092°06'2 4.8
2018-May-18 16:00N 46°44' W 092°04'3 6.2
2018-May-18 15:30N 46°46' W 092°06'0 1.0
2018-May-18 15:00N 46°47' W 092°06'0 0.0
2018-May-18 14:30N 46°47' W 092°06'2 3.1
2018-May-18 14:01N 46°45' W 092°06'1 1.9
2018-May-18 13:30N 46°44' W 092°06'0 0.0
2018-May-17 02:42N 46°44' W 092°06'0 0.0
2018-May-17 02:30N 46°44' W 092°06'2 4.0
2018-May-17 01:58N 46°47' W 092°06'0 0.7
2018-May-17 01:30N 46°47' W 092°06'0 0.0
2018-May-17 01:00N 46°47' W 092°06'2 4.6
2018-May-17 00:30N 46°45' W 092°05'1 2.7
2018-May-17 00:00N 46°45' W 092°07'2 5.0
2018-May-16 23:30N 46°47' W 092°06'0 0.0
2018-May-16 23:00N 46°47' W 092°06'0 0.0
2018-May-15 19:34N 46°47' W 092°06'0 0.0
2018-May-15 19:30N 46°47' W 092°06'1 1.6
2018-May-15 19:01N 46°46' W 092°06'0 0.4
2018-May-15 18:30N 46°46' W 092°06'1 1.9
2018-May-15 18:00N 46°47' W 092°06'2 3.9
2018-May-15 17:30N 46°45' W 092°06'2 3.8
2018-May-15 17:00N 46°47' W 092°06'0 0.0
2018-May-15 16:30N 46°47' W 092°06'2 3.7
2018-May-15 16:00N 46°45' W 092°06'2 3.8
2018-May-15 15:31N 46°47' W 092°06'1 1.2
2018-May-15 15:01N 46°46' W 092°06'0 0.2
2018-May-15 14:30N 46°46' W 092°06'1 1.4
2018-May-15 14:00N 46°47' W 092°06'0 0.0
2018-May-15 13:30N 46°47' W 092°06'0 0.0
2018-May-14 19:34N 46°47' W 092°06'0 0.1
2018-May-14 19:30N 46°47' W 092°06'1 1.3
2018-May-14 19:00N 46°46' W 092°06'0 0.5
2018-May-14 18:30N 46°46' W 092°06'1 1.7
2018-May-14 18:00N 46°47' W 092°06'2 3.9
2018-May-14 17:30N 46°45' W 092°06'2 3.8
2018-May-14 17:00N 46°47' W 092°06'0 0.0
2018-May-14 16:30N 46°47' W 092°06'2 3.7
2018-May-14 16:00N 46°45' W 092°06'2 3.7
2018-May-14 15:30N 46°47' W 092°06'1 1.1
2018-May-14 15:00N 46°46' W 092°06'0 0.3
2018-May-14 14:29N 46°46' W 092°06'0 0.9
2018-May-14 14:00N 46°47' W 092°06'0 0.0
2018-May-14 13:30N 46°47' W 092°06'0 0.0
2018-May-13 20:13N 46°47' W 092°06'0 0.0
2018-May-13 20:00N 46°47' W 092°06'1 1.6
2018-May-13 19:30N 46°46' W 092°06'0 0.1
2018-May-13 19:00N 46°46' W 092°06'0 0.5
2018-May-13 18:30N 46°46' W 092°06'1 1.2
2018-May-13 18:00N 46°47' W 092°06'0 0.0
2018-May-13 17:30N 46°47' W 092°06'0 0.1
2018-May-13 17:00N 46°47' W 092°06'0 0.1
2018-May-13 16:30N 46°47' W 092°06'0 0.0
2018-May-13 16:00N 46°47' W 092°06'0 0.0
2018-May-13 15:30N 46°47' W 092°06'0 0.0
2018-May-13 15:00N 46°47' W 092°06'0 0.0
2018-May-13 14:30N 46°47' W 092°06'  
Track history (hours):
 
Tides and Currents Weather Stations Pressure Air Temp Water Temp Dewpoint Dewpoint Depression Visibility Wind Speed Wind Dir Waves Ship Positions

Vista Star

Owner: Vista Cruises Inc., Duluth, MN. More information available from US FCC via Universal Licensing System and Coast Guard Vessel Documentation Center.

Last reported at 2018-May-22 19:04 UTC. Time now 2018-May-22 19:33 UTC.
Position N 46°47' W 092°06'.

Type: Ship. MMSI: 367527820.

Date/timePositionNaut miles runAvg speedWind from/ knotsBaromVisibWave heightAir tempDewpointWater temp
2018-May-22 19:04N 46°47' W 092°06'0 0.0
2018-May-22 19:00N 46°47' W 092°06'1 2.4
2018-May-22 18:30N 46°46' W 092°06'1 2.4
2018-May-22 18:00N 46°47' W 092°05'0 0.5
2018-May-22 17:29N 46°47' W 092°06'0 0.1
2018-May-22 17:00N 46°47' W 092°06'1 2.3
2018-May-22 16:30N 46°46' W 092°06'1 2.1
2018-May-22 16:00N 46°47' W 092°06'0 0.3
2018-May-22 15:30N 46°47' W 092°06'0 0.1
2018-May-22 15:00N 46°47' W 092°06'0 0.0
2018-May-22 14:30N 46°47' W 092°06'0 0.0
2018-May-21 18:59N 46°47' W 092°06'1 1.6
2018-May-21 18:30N 46°46' W 092°06'1 1.4
2018-May-21 18:01N 46°47' W 092°06'0 0.4
2018-May-21 17:30N 46°47' W 092°06'0 0.1
2018-May-21 17:00N 46°47' W 092°06'1 1.8
2018-May-21 16:30N 46°46' W 092°06'1 1.9
2018-May-21 16:01N 46°47' W 092°05'0 0.6
2018-May-21 15:30N 46°47' W 092°06'0 0.1
2018-May-21 15:00N 46°47' W 092°06'0 0.0
2018-May-20 22:17N 46°47' W 092°06'1 2.6
2018-May-20 22:01N 46°46' W 092°06'2 3.7
2018-May-20 21:30N 46°45' W 092°08'2 5.0
2018-May-20 21:01N 46°47' W 092°05'0 0.5
2018-May-20 20:31N 46°47' W 092°06'0 0.1
2018-May-20 20:01N 46°47' W 092°06'0 0.0
2018-May-20 19:31N 46°47' W 092°06'0 0.0
2018-May-20 19:00N 46°47' W 092°06'1 1.1
2018-May-20 18:30N 46°46' W 092°06'0 0.9
2018-May-20 18:01N 46°47' W 092°06'0 0.4
2018-May-20 17:30N 46°47' W 092°06'0 0.3
2018-May-20 17:00N 46°47' W 092°06'1 1.3
2018-May-20 16:31N 46°46' W 092°06'2 3.8
2018-May-20 16:00N 46°45' W 092°07'3 5.5
2018-May-20 15:30N 46°47' W 092°05'1 1.3
2018-May-20 15:00N 46°47' W 092°06'0 0.2
2018-May-20 14:30N 46°47' W 092°06'0 0.0
2018-May-20 03:32N 46°47' W 092°06'0 0.2
2018-May-20 03:30N 46°47' W 092°06'0 0.0
2018-May-20 03:00N 46°47' W 092°06'3 5.2
2018-May-20 02:30N 46°45' W 092°03'3 5.9
2018-May-20 02:00N 46°42' W 092°01'3 6.6
2018-May-20 01:30N 46°44' W 092°05'3 5.3
2018-May-20 01:00N 46°47' W 092°06'0 0.0
2018-May-20 00:30N 46°47' W 092°06'0 0.0
2018-May-19 20:47N 46°47' W 092°06'1 3.3
2018-May-19 20:30N 46°46' W 092°06'1 1.7
2018-May-19 20:00N 46°47' W 092°06'0 0.2
2018-May-19 19:30N 46°47' W 092°06'0 0.3
2018-May-19 19:00N 46°47' W 092°06'0 0.6
2018-May-19 18:30N 46°47' W 092°06'0 0.5
2018-May-19 18:00N 46°46' W 092°06'1 1.1
2018-May-19 17:30N 46°47' W 092°05'0 0.6
2018-May-19 17:00N 46°47' W 092°06'1 1.5
2018-May-19 16:30N 46°46' W 092°06'2 3.9
2018-May-19 16:00N 46°45' W 092°08'3 5.3
2018-May-19 15:30N 46°47' W 092°05'0 0.8
2018-May-19 15:00N 46°47' W 092°06'0 0.0
2018-May-18 23:12N 46°47' W 092°06'0 0.0
2018-May-18 19:07N 46°47' W 092°06'0 0.0
2018-May-18 19:00N 46°47' W 092°06'0 0.2
2018-May-18 18:29N 46°47' W 092°06'2 4.9
2018-May-18 18:00N 46°45' W 092°07'2 4.3
2018-May-18 17:30N 46°47' W 092°06'0 0.5
2018-May-18 17:00N 46°47' W 092°06'1 2.2
2018-May-18 16:30N 46°46' W 092°06'2 4.8
2018-May-18 16:00N 46°44' W 092°04'3 6.2
2018-May-18 15:30N 46°46' W 092°06'0 1.0
2018-May-18 15:00N 46°47' W 092°06'0 0.0
2018-May-18 14:30N 46°47' W 092°06'2 3.1
2018-May-18 14:01N 46°45' W 092°06'1 1.9
2018-May-18 13:30N 46°44' W 092°06'0 0.0
2018-May-17 02:42N 46°44' W 092°06'0 0.0
2018-May-17 02:30N 46°44' W 092°06'2 4.0
2018-May-17 01:58N 46°47' W 092°06'0 0.7
2018-May-17 01:30N 46°47' W 092°06'0 0.0
2018-May-17 01:00N 46°47' W 092°06'2 4.6
2018-May-17 00:30N 46°45' W 092°05'1 2.7
2018-May-17 00:00N 46°45' W 092°07'2 5.0
2018-May-16 23:30N 46°47' W 092°06'0 0.0
2018-May-16 23:00N 46°47' W 092°06'0 0.0
2018-May-15 19:34N 46°47' W 092°06'0 0.0
2018-May-15 19:30N 46°47' W 092°06'1 1.6
2018-May-15 19:01N 46°46' W 092°06'0 0.4
2018-May-15 18:30N 46°46' W 092°06'1 1.9
2018-May-15 18:00N 46°47' W 092°06'2 3.9
2018-May-15 17:30N 46°45' W 092°06'2 3.8
2018-May-15 17:00N 46°47' W 092°06'0 0.0
2018-May-15 16:30N 46°47' W 092°06'2 3.7
2018-May-15 16:00N 46°45' W 092°06'2 3.8
2018-May-15 15:31N 46°47' W 092°06'1 1.2
2018-May-15 15:01N 46°46' W 092°06'0 0.2
2018-May-15 14:30N 46°46' W 092°06'1 1.4
2018-May-15 14:00N 46°47' W 092°06'0 0.0
2018-May-15 13:30N 46°47' W 092°06'0 0.0
2018-May-14 19:34N 46°47' W 092°06'0 0.1
2018-May-14 19:30N 46°47' W 092°06'1 1.3
2018-May-14 19:00N 46°46' W 092°06'0 0.5
2018-May-14 18:30N 46°46' W 092°06'1 1.7
2018-May-14 18:00N 46°47' W 092°06'2 3.9
2018-May-14 17:30N 46°45' W 092°06'2 3.8
2018-May-14 17:00N 46°47' W 092°06'0 0.0
2018-May-14 16:30N 46°47' W 092°06'2 3.7
2018-May-14 16:00N 46°45' W 092°06'2 3.7
2018-May-14 15:30N 46°47' W 092°06'1 1.1
2018-May-14 15:00N 46°46' W 092°06'0 0.3
2018-May-14 14:29N 46°46' W 092°06'0 0.9
2018-May-14 14:00N 46°47' W 092°06'0 0.0
2018-May-14 13:30N 46°47' W 092°06'0 0.0
2018-May-13 20:13N 46°47' W 092°06'0 0.0
2018-May-13 20:00N 46°47' W 092°06'1 1.6
2018-May-13 19:30N 46°46' W 092°06'0 0.1
2018-May-13 19:00N 46°46' W 092°06'0 0.5
2018-May-13 18:30N 46°46' W 092°06'1 1.2
2018-May-13 18:00N 46°47' W 092°06'0 0.0
2018-May-13 17:30N 46°47' W 092°06'0 0.1
2018-May-13 17:00N 46°47' W 092°06'0 0.1
2018-May-13 16:30N 46°47' W 092°06'0 0.0
2018-May-13 16:00N 46°47' W 092°06'0 0.0
2018-May-13 15:30N 46°47' W 092°06'0 0.0
2018-May-13 15:00N 46°47' W 092°06'0 0.0
2018-May-13 14:30N 46°47' W 092°06'  

Dump ship's entire track history